sensor_id;sensor_type;location;lat;lon;timestamp;temperature;humidity
2631;DHT22;1325;48.414;9.952;2022-07-23T00:01:26;21.40;99.90
2631;DHT22;1325;48.414;9.952;2022-07-23T00:03:56;21.50;99.90
2631;DHT22;1325;48.414;9.952;2022-07-23T00:06:23;21.60;99.90
2631;DHT22;1325;48.414;9.952;2022-07-23T00:08:50;21.30;99.90
2631;DHT22;1325;48.414;9.952;2022-07-23T00:11:18;21.00;99.90
2631;DHT22;1325;48.414;9.952;2022-07-23T00:13:48;21.20;99.90
2631;DHT22;1325;48.414;9.952;2022-07-23T00:16:15;21.30;99.90
2631;DHT22;1325;48.414;9.952;2022-07-23T00:18:42;21.30;99.90
2631;DHT22;1325;48.414;9.952;2022-07-23T00:21:11;21.10;99.90
2631;DHT22;1325;48.414;9.952;2022-07-23T00:23:38;20.70;99.90
2631;DHT22;1325;48.414;9.952;2022-07-23T00:26:05;21.00;99.90
2631;DHT22;1325;48.414;9.952;2022-07-23T00:28:33;21.40;99.90
2631;DHT22;1325;48.414;9.952;2022-07-23T00:31:01;21.30;99.90
2631;DHT22;1325;48.414;9.952;2022-07-23T00:33:28;21.40;99.90
2631;DHT22;1325;48.414;9.952;2022-07-23T00:35:56;21.70;99.90
2631;DHT22;1325;48.414;9.952;2022-07-23T00:38:25;21.80;99.90
2631;DHT22;1325;48.414;9.952;2022-07-23T00:40:52;21.60;99.90
2631;DHT22;1325;48.414;9.952;2022-07-23T00:43:20;21.40;99.90
2631;DHT22;1325;48.414;9.952;2022-07-23T00:45:47;21.00;99.90
2631;DHT22;1325;48.414;9.952;2022-07-23T00:48:15;20.90;99.90
2631;DHT22;1325;48.414;9.952;2022-07-23T00:50:43;20.40;99.90
2631;DHT22;1325;48.414;9.952;2022-07-23T00:53:10;20.20;99.90
2631;DHT22;1325;48.414;9.952;2022-07-23T00:55:39;20.20;99.90
2631;DHT22;1325;48.414;9.952;2022-07-23T00:58:06;20.60;99.90
2631;DHT22;1325;48.414;9.952;2022-07-23T01:00:36;20.80;99.90
2631;DHT22;1325;48.414;9.952;2022-07-23T01:03:03;20.80;99.90
2631;DHT22;1325;48.414;9.952;2022-07-23T01:05:30;20.60;99.90
2631;DHT22;1325;48.414;9.952;2022-07-23T01:07:58;20.40;99.90
2631;DHT22;1325;48.414;9.952;2022-07-23T01:10:25;20.40;99.90
2631;DHT22;1325;48.414;9.952;2022-07-23T01:13:01;20.40;99.90
2631;DHT22;1325;48.414;9.952;2022-07-23T01:15:30;20.20;99.90
2631;DHT22;1325;48.414;9.952;2022-07-23T01:17:58;20.40;99.90
2631;DHT22;1325;48.414;9.952;2022-07-23T01:20:25;19.90;99.90
2631;DHT22;1325;48.414;9.952;2022-07-23T01:22:54;20.20;99.90
2631;DHT22;1325;48.414;9.952;2022-07-23T01:25:22;20.50;99.90
2631;DHT22;1325;48.414;9.952;2022-07-23T01:27:50;20.30;99.90
2631;DHT22;1325;48.414;9.952;2022-07-23T01:30:18;20.20;99.90
2631;DHT22;1325;48.414;9.952;2022-07-23T01:32:46;20.70;99.90
2631;DHT22;1325;48.414;9.952;2022-07-23T01:35:13;20.60;99.90
2631;DHT22;1325;48.414;9.952;2022-07-23T01:37:41;20.90;99.90
2631;DHT22;1325;48.414;9.952;2022-07-23T01:40:09;21.30;99.90
2631;DHT22;1325;48.414;9.952;2022-07-23T01:42:37;21.20;99.90
2631;DHT22;1325;48.414;9.952;2022-07-23T01:45:05;21.40;99.90
2631;DHT22;1325;48.414;9.952;2022-07-23T01:47:33;21.00;99.90
2631;DHT22;1325;48.414;9.952;2022-07-23T01:50:00;21.20;99.90
2631;DHT22;1325;48.414;9.952;2022-07-23T01:52:28;21.20;99.90
2631;DHT22;1325;48.414;9.952;2022-07-23T01:54:55;20.40;99.90
2631;DHT22;1325;48.414;9.952;2022-07-23T01:57:23;20.60;99.90
2631;DHT22;1325;48.414;9.952;2022-07-23T01:59:51;20.50;99.90
2631;DHT22;1325;48.414;9.952;2022-07-23T02:02:18;20.60;99.90
2631;DHT22;1325;48.414;9.952;2022-07-23T02:04:45;20.60;99.90
2631;DHT22;1325;48.414;9.952;2022-07-23T02:07:12;20.80;99.90
2631;DHT22;1325;48.414;9.952;2022-07-23T02:09:40;20.80;99.90
2631;DHT22;1325;48.414;9.952;2022-07-23T02:12:27;20.50;99.90
2631;DHT22;1325;48.414;9.952;2022-07-23T02:14:54;20.90;99.90
2631;DHT22;1325;48.414;9.952;2022-07-23T02:17:35;20.10;99.90
2631;DHT22;1325;48.414;9.952;2022-07-23T02:20:03;20.10;99.90
2631;DHT22;1325;48.414;9.952;2022-07-23T02:22:31;20.60;99.90
2631;DHT22;1325;48.414;9.952;2022-07-23T02:24:58;20.60;99.90
2631;DHT22;1325;48.414;9.952;2022-07-23T02:27:27;20.20;99.90
2631;DHT22;1325;48.414;9.952;2022-07-23T02:29:55;20.10;99.90
2631;DHT22;1325;48.414;9.952;2022-07-23T02:32:23;19.90;99.90
2631;DHT22;1325;48.414;9.952;2022-07-23T02:34:50;20.20;99.90
2631;DHT22;1325;48.414;9.952;2022-07-23T02:37:18;19.50;99.90
2631;DHT22;1325;48.414;9.952;2022-07-23T02:39:45;19.50;99.90
2631;DHT22;1325;48.414;9.952;2022-07-23T02:42:14;19.60;99.90
2631;DHT22;1325;48.414;9.952;2022-07-23T02:44:43;20.00;99.90
2631;DHT22;1325;48.414;9.952;2022-07-23T02:47:20;20.40;99.90
2631;DHT22;1325;48.414;9.952;2022-07-23T02:49:48;20.70;99.90
2631;DHT22;1325;48.414;9.952;2022-07-23T02:52:15;20.60;99.90
2631;DHT22;1325;48.414;9.952;2022-07-23T02:54:42;20.40;99.90
2631;DHT22;1325;48.414;9.952;2022-07-23T02:57:09;20.50;99.90
2631;DHT22;1325;48.414;9.952;2022-07-23T02:59:37;20.50;99.90
2631;DHT22;1325;48.414;9.952;2022-07-23T03:02:05;20.00;99.90
2631;DHT22;1325;48.414;9.952;2022-07-23T03:04:33;19.90;99.90
2631;DHT22;1325;48.414;9.952;2022-07-23T03:07:00;19.70;99.90
2631;DHT22;1325;48.414;9.952;2022-07-23T03:09:27;19.70;99.90
2631;DHT22;1325;48.414;9.952;2022-07-23T03:11:54;19.90;99.90
2631;DHT22;1325;48.414;9.952;2022-07-23T03:14:22;19.70;99.90
2631;DHT22;1325;48.414;9.952;2022-07-23T03:16:49;20.00;99.90
2631;DHT22;1325;48.414;9.952;2022-07-23T03:19:17;20.30;99.90
2631;DHT22;1325;48.414;9.952;2022-07-23T03:21:45;20.00;99.90
2631;DHT22;1325;48.414;9.952;2022-07-23T03:24:12;19.80;99.90
2631;DHT22;1325;48.414;9.952;2022-07-23T03:26:39;19.50;99.90
2631;DHT22;1325;48.414;9.952;2022-07-23T03:29:07;19.50;99.90
2631;DHT22;1325;48.414;9.952;2022-07-23T03:31:34;19.20;99.90
2631;DHT22;1325;48.414;9.952;2022-07-23T03:34:01;19.30;99.90
2631;DHT22;1325;48.414;9.952;2022-07-23T03:36:30;19.90;99.90
2631;DHT22;1325;48.414;9.952;2022-07-23T03:38:57;20.10;99.90
2631;DHT22;1325;48.414;9.952;2022-07-23T03:41:25;20.30;99.90
2631;DHT22;1325;48.414;9.952;2022-07-23T03:43:52;19.70;99.90
2631;DHT22;1325;48.414;9.952;2022-07-23T03:46:19;19.50;99.90
2631;DHT22;1325;48.414;9.952;2022-07-23T03:48:47;20.20;99.90
2631;DHT22;1325;48.414;9.952;2022-07-23T03:51:14;20.30;99.90
2631;DHT22;1325;48.414;9.952;2022-07-23T03:53:42;20.00;99.90
2631;DHT22;1325;48.414;9.952;2022-07-23T03:56:09;19.70;99.90
2631;DHT22;1325;48.414;9.952;2022-07-23T03:58:37;19.40;99.90
2631;DHT22;1325;48.414;9.952;2022-07-23T04:01:04;19.10;99.90
2631;DHT22;1325;48.414;9.952;2022-07-23T04:03:31;19.20;99.90
2631;DHT22;1325;48.414;9.952;2022-07-23T04:05:59;19.40;99.90
2631;DHT22;1325;48.414;9.952;2022-07-23T04:08:26;19.90;99.90
2631;DHT22;1325;48.414;9.952;2022-07-23T04:10:55;19.90;99.90
2631;DHT22;1325;48.414;9.952;2022-07-23T04:13:22;19.20;99.90
2631;DHT22;1325;48.414;9.952;2022-07-23T04:15:50;18.90;99.90
2631;DHT22;1325;48.414;9.952;2022-07-23T04:18:17;18.70;99.90
2631;DHT22;1325;48.414;9.952;2022-07-23T04:20:46;18.60;99.90
2631;DHT22;1325;48.414;9.952;2022-07-23T04:23:14;18.90;99.90
2631;DHT22;1325;48.414;9.952;2022-07-23T04:25:41;19.20;99.90
2631;DHT22;1325;48.414;9.952;2022-07-23T04:28:10;18.90;99.90
2631;DHT22;1325;48.414;9.952;2022-07-23T04:30:37;18.80;99.90
2631;DHT22;1325;48.414;9.952;2022-07-23T04:33:04;18.80;99.90
2631;DHT22;1325;48.414;9.952;2022-07-23T04:35:32;19.00;99.90
2631;DHT22;1325;48.414;9.952;2022-07-23T04:38:00;19.30;99.90
2631;DHT22;1325;48.414;9.952;2022-07-23T04:40:27;19.50;99.90
2631;DHT22;1325;48.414;9.952;2022-07-23T04:42:56;19.50;99.90
2631;DHT22;1325;48.414;9.952;2022-07-23T04:45:25;19.50;99.90
2631;DHT22;1325;48.414;9.952;2022-07-23T04:47:52;19.30;99.90
2631;DHT22;1325;48.414;9.952;2022-07-23T04:50:20;19.00;99.90
2631;DHT22;1325;48.414;9.952;2022-07-23T04:52:48;18.80;99.90
2631;DHT22;1325;48.414;9.952;2022-07-23T04:55:15;18.60;99.90
2631;DHT22;1325;48.414;9.952;2022-07-23T04:57:42;18.70;99.90
2631;DHT22;1325;48.414;9.952;2022-07-23T05:00:11;18.60;99.90
2631;DHT22;1325;48.414;9.952;2022-07-23T05:02:40;18.60;99.90
2631;DHT22;1325;48.414;9.952;2022-07-23T05:05:08;18.90;99.90
2631;DHT22;1325;48.414;9.952;2022-07-23T05:07:35;19.00;99.90
2631;DHT22;1325;48.414;9.952;2022-07-23T05:10:03;19.00;99.90
2631;DHT22;1325;48.414;9.952;2022-07-23T05:12:30;19.20;99.90
2631;DHT22;1325;48.414;9.952;2022-07-23T05:14:58;19.10;99.90
2631;DHT22;1325;48.414;9.952;2022-07-23T05:17:25;19.00;99.90
2631;DHT22;1325;48.414;9.952;2022-07-23T05:19:54;19.20;99.90
2631;DHT22;1325;48.414;9.952;2022-07-23T05:22:21;19.10;99.90
2631;DHT22;1325;48.414;9.952;2022-07-23T05:24:48;19.30;99.90
2631;DHT22;1325;48.414;9.952;2022-07-23T05:27:15;19.20;99.90
2631;DHT22;1325;48.414;9.952;2022-07-23T05:29:42;19.00;99.90
2631;DHT22;1325;48.414;9.952;2022-07-23T05:32:09;19.10;99.90
2631;DHT22;1325;48.414;9.952;2022-07-23T05:34:36;19.00;99.90
2631;DHT22;1325;48.414;9.952;2022-07-23T05:37:05;18.90;99.90
2631;DHT22;1325;48.414;9.952;2022-07-23T05:39:33;19.10;99.90
2631;DHT22;1325;48.414;9.952;2022-07-23T05:42:00;19.20;99.90
2631;DHT22;1325;48.414;9.952;2022-07-23T05:44:27;19.30;99.90
2631;DHT22;1325;48.414;9.952;2022-07-23T05:46:54;19.30;99.90
2631;DHT22;1325;48.414;9.952;2022-07-23T05:49:21;19.40;99.90
2631;DHT22;1325;48.414;9.952;2022-07-23T05:51:49;19.80;99.90
2631;DHT22;1325;48.414;9.952;2022-07-23T05:54:17;20.40;99.90
2631;DHT22;1325;48.414;9.952;2022-07-23T05:56:44;20.30;99.90
2631;DHT22;1325;48.414;9.952;2022-07-23T05:59:11;20.30;99.90
2631;DHT22;1325;48.414;9.952;2022-07-23T06:01:40;20.40;99.90
2631;DHT22;1325;48.414;9.952;2022-07-23T06:04:07;21.00;99.90
2631;DHT22;1325;48.414;9.952;2022-07-23T06:06:34;21.20;99.90
2631;DHT22;1325;48.414;9.952;2022-07-23T06:09:01;20.30;99.90
2631;DHT22;1325;48.414;9.952;2022-07-23T06:11:30;20.00;99.90
2631;DHT22;1325;48.414;9.952;2022-07-23T06:13:57;19.60;99.90
2631;DHT22;1325;48.414;9.952;2022-07-23T06:16:24;19.60;99.90
2631;DHT22;1325;48.414;9.952;2022-07-23T06:18:51;20.10;99.90
2631;DHT22;1325;48.414;9.952;2022-07-23T06:21:18;20.30;99.90
2631;DHT22;1325;48.414;9.952;2022-07-23T06:23:46;20.40;99.90
2631;DHT22;1325;48.414;9.952;2022-07-23T06:26:13;20.30;99.90
2631;DHT22;1325;48.414;9.952;2022-07-23T06:28:41;20.40;99.90
2631;DHT22;1325;48.414;9.952;2022-07-23T06:31:08;20.10;99.90
2631;DHT22;1325;48.414;9.952;2022-07-23T06:33:35;20.80;99.90
2631;DHT22;1325;48.414;9.952;2022-07-23T06:36:03;21.40;99.90
2631;DHT22;1325;48.414;9.952;2022-07-23T06:38:32;20.60;99.90
2631;DHT22;1325;48.414;9.952;2022-07-23T06:41:00;20.40;99.90
2631;DHT22;1325;48.414;9.952;2022-07-23T06:43:28;20.30;99.90
2631;DHT22;1325;48.414;9.952;2022-07-23T06:45:58;20.20;99.90
2631;DHT22;1325;48.414;9.952;2022-07-23T06:48:25;20.10;99.90
2631;DHT22;1325;48.414;9.952;2022-07-23T06:50:52;20.40;99.90
2631;DHT22;1325;48.414;9.952;2022-07-23T06:53:20;20.40;99.90
2631;DHT22;1325;48.414;9.952;2022-07-23T06:55:47;20.10;99.90
2631;DHT22;1325;48.414;9.952;2022-07-23T06:58:14;20.30;99.90
2631;DHT22;1325;48.414;9.952;2022-07-23T07:00:41;20.10;99.90
2631;DHT22;1325;48.414;9.952;2022-07-23T07:03:10;20.30;99.90
2631;DHT22;1325;48.414;9.952;2022-07-23T07:05:37;21.10;99.90
2631;DHT22;1325;48.414;9.952;2022-07-23T07:08:05;22.00;99.90
2631;DHT22;1325;48.414;9.952;2022-07-23T07:10:32;22.70;99.90
2631;DHT22;1325;48.414;9.952;2022-07-23T07:12:59;22.80;99.90
2631;DHT22;1325;48.414;9.952;2022-07-23T07:15:26;22.70;99.90
2631;DHT22;1325;48.414;9.952;2022-07-23T07:17:53;22.80;99.90
2631;DHT22;1325;48.414;9.952;2022-07-23T07:20:22;23.20;99.90
2631;DHT22;1325;48.414;9.952;2022-07-23T07:22:49;24.00;99.90
2631;DHT22;1325;48.414;9.952;2022-07-23T07:25:18;24.30;99.90
2631;DHT22;1325;48.414;9.952;2022-07-23T07:27:45;24.90;99.90
2631;DHT22;1325;48.414;9.952;2022-07-23T07:30:12;25.90;99.90
2631;DHT22;1325;48.414;9.952;2022-07-23T07:32:40;25.70;99.90
2631;DHT22;1325;48.414;9.952;2022-07-23T07:35:08;25.60;99.90
2631;DHT22;1325;48.414;9.952;2022-07-23T07:37:56;25.60;99.90
2631;DHT22;1325;48.414;9.952;2022-07-23T07:40:23;26.80;99.90
2631;DHT22;1325;48.414;9.952;2022-07-23T07:42:53;27.20;99.90
2631;DHT22;1325;48.414;9.952;2022-07-23T07:45:23;26.40;99.90
2631;DHT22;1325;48.414;9.952;2022-07-23T07:47:51;25.90;99.90
2631;DHT22;1325;48.414;9.952;2022-07-23T07:50:19;25.80;99.90
2631;DHT22;1325;48.414;9.952;2022-07-23T07:52:46;26.60;99.90
2631;DHT22;1325;48.414;9.952;2022-07-23T07:55:14;26.30;99.90
2631;DHT22;1325;48.414;9.952;2022-07-23T07:57:42;26.90;99.90
2631;DHT22;1325;48.414;9.952;2022-07-23T08:00:10;26.10;99.90
2631;DHT22;1325;48.414;9.952;2022-07-23T08:02:42;26.60;99.90
2631;DHT22;1325;48.414;9.952;2022-07-23T08:05:11;26.00;99.90
2631;DHT22;1325;48.414;9.952;2022-07-23T08:07:38;25.90;99.90
2631;DHT22;1325;48.414;9.952;2022-07-23T08:10:06;25.90;99.90
2631;DHT22;1325;48.414;9.952;2022-07-23T08:12:41;26.60;99.90
2631;DHT22;1325;48.414;9.952;2022-07-23T08:15:11;27.40;99.90
2631;DHT22;1325;48.414;9.952;2022-07-23T08:17:39;28.10;99.90
2631;DHT22;1325;48.414;9.952;2022-07-23T08:20:07;28.00;99.90
2631;DHT22;1325;48.414;9.952;2022-07-23T08:22:42;27.50;99.90
2631;DHT22;1325;48.414;9.952;2022-07-23T08:25:14;27.80;99.90
2631;DHT22;1325;48.414;9.952;2022-07-23T08:27:43;28.50;99.90
2631;DHT22;1325;48.414;9.952;2022-07-23T08:30:10;28.40;99.90
2631;DHT22;1325;48.414;9.952;2022-07-23T08:32:54;27.50;99.90
2631;DHT22;1325;48.414;9.952;2022-07-23T08:35:25;27.00;99.90
2631;DHT22;1325;48.414;9.952;2022-07-23T08:37:54;27.00;99.90
2631;DHT22;1325;48.414;9.952;2022-07-23T08:40:21;26.70;99.90
2631;DHT22;1325;48.414;9.952;2022-07-23T08:42:51;27.10;99.90
2631;DHT22;1325;48.414;9.952;2022-07-23T08:45:20;27.80;99.90
2631;DHT22;1325;48.414;9.952;2022-07-23T08:47:49;27.80;99.90
2631;DHT22;1325;48.414;9.952;2022-07-23T08:50:18;27.70;99.90
2631;DHT22;1325;48.414;9.952;2022-07-23T08:52:45;28.00;99.90
2631;DHT22;1325;48.414;9.952;2022-07-23T08:55:13;27.10;99.90
2631;DHT22;1325;48.414;9.952;2022-07-23T08:57:42;26.20;99.90
2631;DHT22;1325;48.414;9.952;2022-07-23T09:00:12;25.90;99.90
2631;DHT22;1325;48.414;9.952;2022-07-23T09:02:41;25.30;99.90
2631;DHT22;1325;48.414;9.952;2022-07-23T09:05:09;25.40;99.90
2631;DHT22;1325;48.414;9.952;2022-07-23T09:07:38;24.90;99.90
2631;DHT22;1325;48.414;9.952;2022-07-23T09:10:46;24.70;99.90
2631;DHT22;1325;48.414;9.952;2022-07-23T09:13:35;24.80;99.90
2631;DHT22;1325;48.414;9.952;2022-07-23T09:16:07;25.30;99.90
2631;DHT22;1325;48.414;9.952;2022-07-23T09:18:41;25.60;99.90
2631;DHT22;1325;48.414;9.952;2022-07-23T09:21:22;26.70;99.90
2631;DHT22;1325;48.414;9.952;2022-07-23T09:23:54;27.40;99.90
2631;DHT22;1325;48.414;9.952;2022-07-23T09:26:26;27.50;99.90
2631;DHT22;1325;48.414;9.952;2022-07-23T09:28:59;27.80;99.90
2631;DHT22;1325;48.414;9.952;2022-07-23T09:31:34;27.50;99.90
2631;DHT22;1325;48.414;9.952;2022-07-23T09:34:12;28.60;99.90
2631;DHT22;1325;48.414;9.952;2022-07-23T09:36:41;28.20;99.90
2631;DHT22;1325;48.414;9.952;2022-07-23T09:39:08;27.60;99.90
2631;DHT22;1325;48.414;9.952;2022-07-23T09:41:38;27.40;99.90
2631;DHT22;1325;48.414;9.952;2022-07-23T09:44:12;27.10;99.90
2631;DHT22;1325;48.414;9.952;2022-07-23T09:46:43;27.60;99.90
2631;DHT22;1325;48.414;9.952;2022-07-23T09:49:14;28.10;99.90
2631;DHT22;1325;48.414;9.952;2022-07-23T09:51:47;28.10;99.90
2631;DHT22;1325;48.414;9.952;2022-07-23T09:54:24;28.20;99.90
2631;DHT22;1325;48.414;9.952;2022-07-23T09:57:02;27.90;99.90
2631;DHT22;1325;48.414;9.952;2022-07-23T09:59:35;28.20;99.90
2631;DHT22;1325;48.414;9.952;2022-07-23T10:02:08;28.40;99.90
2631;DHT22;1325;48.414;9.952;2022-07-23T10:04:37;28.10;99.90
2631;DHT22;1325;48.414;9.952;2022-07-23T10:07:06;28.10;99.90
2631;DHT22;1325;48.414;9.952;2022-07-23T10:09:37;27.80;99.90
2631;DHT22;1325;48.414;9.952;2022-07-23T10:12:09;28.40;99.90
2631;DHT22;1325;48.414;9.952;2022-07-23T10:14:42;28.00;99.90
2631;DHT22;1325;48.414;9.952;2022-07-23T10:17:10;27.20;99.90
2631;DHT22;1325;48.414;9.952;2022-07-23T10:19:38;26.40;99.90
2631;DHT22;1325;48.414;9.952;2022-07-23T10:22:08;26.60;99.90
2631;DHT22;1325;48.414;9.952;2022-07-23T10:24:47;26.30;99.90
2631;DHT22;1325;48.414;9.952;2022-07-23T10:27:41;26.60;99.90
2631;DHT22;1325;48.414;9.952;2022-07-23T10:30:20;26.80;99.90
2631;DHT22;1325;48.414;9.952;2022-07-23T10:33:12;27.10;99.90
2631;DHT22;1325;48.414;9.952;2022-07-23T10:35:55;27.80;99.90
2631;DHT22;1325;48.414;9.952;2022-07-23T10:38:27;28.60;99.90
2631;DHT22;1325;48.414;9.952;2022-07-23T10:40:58;28.40;99.90
2631;DHT22;1325;48.414;9.952;2022-07-23T10:43:28;28.00;99.90
2631;DHT22;1325;48.414;9.952;2022-07-23T10:46:20;28.50;99.90
2631;DHT22;1325;48.414;9.952;2022-07-23T10:49:26;28.70;99.90
2631;DHT22;1325;48.414;9.952;2022-07-23T10:58:06;29.80;99.90
2631;DHT22;1325;48.414;9.952;2022-07-23T11:00:35;29.90;99.90
2631;DHT22;1325;48.414;9.952;2022-07-23T11:03:04;30.20;99.90
2631;DHT22;1325;48.414;9.952;2022-07-23T11:05:45;29.30;99.90
2631;DHT22;1325;48.414;9.952;2022-07-23T11:08:15;29.20;99.90
2631;DHT22;1325;48.414;9.952;2022-07-23T11:10:51;29.40;99.90
2631;DHT22;1325;48.414;9.952;2022-07-23T11:13:36;29.10;99.90
2631;DHT22;1325;48.414;9.952;2022-07-23T11:16:23;29.10;99.90
2631;DHT22;1325;48.414;9.952;2022-07-23T11:19:07;28.90;99.90
2631;DHT22;1325;48.414;9.952;2022-07-23T11:21:46;28.80;99.90
2631;DHT22;1325;48.414;9.952;2022-07-23T11:24:16;28.70;99.90
2631;DHT22;1325;48.414;9.952;2022-07-23T11:26:50;29.00;99.90
2631;DHT22;1325;48.414;9.952;2022-07-23T11:29:42;28.50;99.90
2631;DHT22;1325;48.414;9.952;2022-07-23T11:32:38;28.20;99.90
2631;DHT22;1325;48.414;9.952;2022-07-23T11:35:25;28.60;99.90
2631;DHT22;1325;48.414;9.952;2022-07-23T11:38:04;29.20;99.90
2631;DHT22;1325;48.414;9.952;2022-07-23T11:40:31;28.80;99.90
2631;DHT22;1325;48.414;9.952;2022-07-23T11:43:00;28.40;99.90
2631;DHT22;1325;48.414;9.952;2022-07-23T11:45:33;28.50;99.90
2631;DHT22;1325;48.414;9.952;2022-07-23T11:48:01;28.10;99.90
2631;DHT22;1325;48.414;9.952;2022-07-23T11:50:30;28.00;99.90
2631;DHT22;1325;48.414;9.952;2022-07-23T11:52:58;28.40;99.90
2631;DHT22;1325;48.414;9.952;2022-07-23T11:55:26;27.60;99.90
2631;DHT22;1325;48.414;9.952;2022-07-23T11:57:54;26.60;99.90
2631;DHT22;1325;48.414;9.952;2022-07-23T12:00:24;26.20;99.90
2631;DHT22;1325;48.414;9.952;2022-07-23T12:02:53;25.30;99.90
2631;DHT22;1325;48.414;9.952;2022-07-23T12:05:26;23.40;99.90
2631;DHT22;1325;48.414;9.952;2022-07-23T12:07:55;22.40;99.90
2631;DHT22;1325;48.414;9.952;2022-07-23T12:10:26;22.40;99.90
2631;DHT22;1325;48.414;9.952;2022-07-23T12:12:56;22.10;99.90
2631;DHT22;1325;48.414;9.952;2022-07-23T12:15:27;22.10;99.90
2631;DHT22;1325;48.414;9.952;2022-07-23T12:17:58;21.90;99.90
2631;DHT22;1325;48.414;9.952;2022-07-23T12:20:28;22.00;99.90
2631;DHT22;1325;48.414;9.952;2022-07-23T12:22:58;22.80;99.90
2631;DHT22;1325;48.414;9.952;2022-07-23T12:25:30;23.40;99.90
2631;DHT22;1325;48.414;9.952;2022-07-23T12:28:00;23.50;99.90
2631;DHT22;1325;48.414;9.952;2022-07-23T12:30:31;23.50;99.90
2631;DHT22;1325;48.414;9.952;2022-07-23T12:32:59;23.10;99.90
2631;DHT22;1325;48.414;9.952;2022-07-23T12:35:33;22.50;99.90
2631;DHT22;1325;48.414;9.952;2022-07-23T12:38:04;22.50;99.90
2631;DHT22;1325;48.414;9.952;2022-07-23T12:40:35;22.80;99.90
2631;DHT22;1325;48.414;9.952;2022-07-23T12:43:05;23.20;99.90
2631;DHT22;1325;48.414;9.952;2022-07-23T12:45:45;23.70;99.90
2631;DHT22;1325;48.414;9.952;2022-07-23T12:48:22;24.30;99.90
2631;DHT22;1325;48.414;9.952;2022-07-23T12:50:58;25.10;99.90
2631;DHT22;1325;48.414;9.952;2022-07-23T12:53:28;24.70;99.90
2631;DHT22;1325;48.414;9.952;2022-07-23T12:56:04;24.20;99.90
2631;DHT22;1325;48.414;9.952;2022-07-23T12:58:41;24.00;99.90
2631;DHT22;1325;48.414;9.952;2022-07-23T13:01:10;24.00;99.90
2631;DHT22;1325;48.414;9.952;2022-07-23T13:04:00;24.00;99.90
2631;DHT22;1325;48.414;9.952;2022-07-23T13:06:30;24.60;99.90
2631;DHT22;1325;48.414;9.952;2022-07-23T13:08:58;24.60;99.90
2631;DHT22;1325;48.414;9.952;2022-07-23T13:11:27;24.80;99.90
2631;DHT22;1325;48.414;9.952;2022-07-23T13:13:54;24.80;99.90
2631;DHT22;1325;48.414;9.952;2022-07-23T13:16:21;24.80;99.90
2631;DHT22;1325;48.414;9.952;2022-07-23T13:18:49;24.60;99.90
2631;DHT22;1325;48.414;9.952;2022-07-23T13:21:16;25.20;99.90
2631;DHT22;1325;48.414;9.952;2022-07-23T13:23:43;25.40;99.90
2631;DHT22;1325;48.414;9.952;2022-07-23T13:26:10;25.70;99.90
2631;DHT22;1325;48.414;9.952;2022-07-23T13:28:39;25.40;99.90
2631;DHT22;1325;48.414;9.952;2022-07-23T13:31:06;25.00;99.90
2631;DHT22;1325;48.414;9.952;2022-07-23T13:33:33;24.90;99.90
2631;DHT22;1325;48.414;9.952;2022-07-23T13:36:01;25.10;99.90
2631;DHT22;1325;48.414;9.952;2022-07-23T13:38:28;25.70;99.90
2631;DHT22;1325;48.414;9.952;2022-07-23T13:40:55;25.80;99.90
2631;DHT22;1325;48.414;9.952;2022-07-23T13:43:24;25.50;99.90
2631;DHT22;1325;48.414;9.952;2022-07-23T13:45:53;25.70;99.90
2631;DHT22;1325;48.414;9.952;2022-07-23T13:48:20;25.50;99.90
2631;DHT22;1325;48.414;9.952;2022-07-23T13:50:49;25.80;99.90
2631;DHT22;1325;48.414;9.952;2022-07-23T13:53:18;25.50;99.90
2631;DHT22;1325;48.414;9.952;2022-07-23T13:55:48;25.70;99.90
2631;DHT22;1325;48.414;9.952;2022-07-23T13:58:15;25.40;99.90
2631;DHT22;1325;48.414;9.952;2022-07-23T14:00:45;25.30;99.90
2631;DHT22;1325;48.414;9.952;2022-07-23T14:03:16;25.20;99.90
2631;DHT22;1325;48.414;9.952;2022-07-23T14:05:43;25.00;99.90
2631;DHT22;1325;48.414;9.952;2022-07-23T14:08:10;25.10;99.90
2631;DHT22;1325;48.414;9.952;2022-07-23T14:10:38;25.50;99.90
2631;DHT22;1325;48.414;9.952;2022-07-23T14:13:05;25.10;99.90
2631;DHT22;1325;48.414;9.952;2022-07-23T14:15:32;24.90;99.90
2631;DHT22;1325;48.414;9.952;2022-07-23T14:17:59;24.90;99.90
2631;DHT22;1325;48.414;9.952;2022-07-23T14:20:28;25.30;99.90
2631;DHT22;1325;48.414;9.952;2022-07-23T14:22:55;25.90;99.90
2631;DHT22;1325;48.414;9.952;2022-07-23T14:25:26;26.40;99.90
2631;DHT22;1325;48.414;9.952;2022-07-23T14:27:53;26.80;99.90
2631;DHT22;1325;48.414;9.952;2022-07-23T14:30:20;26.90;99.90
2631;DHT22;1325;48.414;9.952;2022-07-23T14:32:49;27.30;99.90
2631;DHT22;1325;48.414;9.952;2022-07-23T14:35:16;27.20;99.90
2631;DHT22;1325;48.414;9.952;2022-07-23T14:37:45;27.70;99.90
2631;DHT22;1325;48.414;9.952;2022-07-23T14:40:13;27.20;99.90
2631;DHT22;1325;48.414;9.952;2022-07-23T14:42:40;27.30;99.90
2631;DHT22;1325;48.414;9.952;2022-07-23T14:45:07;27.20;99.90
2631;DHT22;1325;48.414;9.952;2022-07-23T14:47:35;26.70;99.90
2631;DHT22;1325;48.414;9.952;2022-07-23T14:50:02;26.90;99.90
2631;DHT22;1325;48.414;9.952;2022-07-23T14:52:30;26.70;99.90
2631;DHT22;1325;48.414;9.952;2022-07-23T14:54:58;26.60;99.90
2631;DHT22;1325;48.414;9.952;2022-07-23T14:57:25;26.40;99.90
2631;DHT22;1325;48.414;9.952;2022-07-23T14:59:54;25.80;99.90
2631;DHT22;1325;48.414;9.952;2022-07-23T15:02:22;25.50;99.90
2631;DHT22;1325;48.414;9.952;2022-07-23T15:04:49;25.00;99.90
2631;DHT22;1325;48.414;9.952;2022-07-23T15:07:16;25.30;99.90
2631;DHT22;1325;48.414;9.952;2022-07-23T15:09:43;25.50;99.90
2631;DHT22;1325;48.414;9.952;2022-07-23T15:12:11;25.20;99.90
2631;DHT22;1325;48.414;9.952;2022-07-23T15:14:38;25.10;99.90
2631;DHT22;1325;48.414;9.952;2022-07-23T15:17:06;25.30;99.90
2631;DHT22;1325;48.414;9.952;2022-07-23T15:19:33;25.70;99.90
2631;DHT22;1325;48.414;9.952;2022-07-23T15:22:00;25.90;99.90
2631;DHT22;1325;48.414;9.952;2022-07-23T15:24:27;25.90;99.90
2631;DHT22;1325;48.414;9.952;2022-07-23T15:26:54;25.50;99.90
2631;DHT22;1325;48.414;9.952;2022-07-23T15:29:23;25.30;99.90
2631;DHT22;1325;48.414;9.952;2022-07-23T15:31:50;25.50;99.90
2631;DHT22;1325;48.414;9.952;2022-07-23T15:34:17;26.00;99.90
2631;DHT22;1325;48.414;9.952;2022-07-23T15:36:44;26.00;99.90
2631;DHT22;1325;48.414;9.952;2022-07-23T15:39:11;25.70;99.90
2631;DHT22;1325;48.414;9.952;2022-07-23T15:41:38;25.40;99.90
2631;DHT22;1325;48.414;9.952;2022-07-23T15:44:06;25.30;99.90
2631;DHT22;1325;48.414;9.952;2022-07-23T15:46:34;25.10;99.90
2631;DHT22;1325;48.414;9.952;2022-07-23T15:49:01;24.90;99.90
2631;DHT22;1325;48.414;9.952;2022-07-23T15:51:29;24.90;99.90
2631;DHT22;1325;48.414;9.952;2022-07-23T15:53:56;25.00;99.90
2631;DHT22;1325;48.414;9.952;2022-07-23T15:56:23;25.30;99.90
2631;DHT22;1325;48.414;9.952;2022-07-23T15:58:51;25.60;99.90
2631;DHT22;1325;48.414;9.952;2022-07-23T16:01:18;26.00;99.90
2631;DHT22;1325;48.414;9.952;2022-07-23T16:03:46;26.30;99.90
2631;DHT22;1325;48.414;9.952;2022-07-23T16:06:13;26.60;99.90
2631;DHT22;1325;48.414;9.952;2022-07-23T16:08:40;26.00;99.90
2631;DHT22;1325;48.414;9.952;2022-07-23T16:11:08;25.70;99.90
2631;DHT22;1325;48.414;9.952;2022-07-23T16:13:35;25.70;99.90
2631;DHT22;1325;48.414;9.952;2022-07-23T16:16:02;25.40;99.90
2631;DHT22;1325;48.414;9.952;2022-07-23T16:18:30;25.60;99.90
2631;DHT22;1325;48.414;9.952;2022-07-23T16:20:59;25.40;99.90
2631;DHT22;1325;48.414;9.952;2022-07-23T16:23:26;25.60;99.90